Time;durP1;ratioP1;P1;durP2;ratioP2;P2;SDS_P1;SDS_P2;PMS_P1;PMS_P2;Temp;Humidity;BMP_temperature;BMP_pressure;BME280_temperature;BME280_humidity;BME280_pressure;Samples;Min_cycle;Max_cycle;Signal;HPM_P1;HPM_P2
2022/06/23 00:00:16;;;;;;;2.30;2.23;;;23.70;70.90;;;;;;5067337;28;43990;-69
2022/06/23 00:02:47;;;;;;;2.40;2.30;;;23.70;71.30;;;;;;5067762;28;43982;-70
2022/06/23 00:05:18;;;;;;;2.20;2.20;;;23.60;71.60;;;;;;5067766;28;43393;-70
2022/06/23 00:07:48;;;;;;;2.57;2.50;;;23.60;71.80;;;;;;5067322;28;43944;-70
2022/06/23 00:10:18;;;;;;;2.30;2.30;;;23.50;71.80;;;;;;5067062;28;44121;-69
2022/06/23 00:12:46;;;;;;;2.20;2.20;;;23.50;72.00;;;;;;5067444;28;43789;-69
2022/06/23 00:15:19;;;;;;;2.20;2.10;;;23.40;72.60;;;;;;5067539;28;43941;-70
2022/06/23 00:17:48;;;;;;;2.33;2.23;;;23.40;72.90;;;;;;5067182;28;43927;-70
2022/06/23 00:20:17;;;;;;;2.60;2.50;;;23.50;72.70;;;;;;5048516;28;46245;-68
2022/06/23 00:22:46;;;;;;;2.40;2.30;;;23.70;72.20;;;;;;5067316;28;43846;-69
2022/06/23 00:25:22;;;;;;;2.30;2.20;;;23.80;71.70;;;;;;5067716;28;43413;-69
2022/06/23 00:27:50;;;;;;;2.50;2.40;;;24.00;71.30;;;;;;5067044;28;45067;-70
2022/06/23 00:30:20;;;;;;;2.37;2.30;;;24.10;70.90;;;;;;5048528;28;43942;-69
2022/06/23 00:32:48;;;;;;;2.20;2.10;;;24.30;70.30;;;;;;5067197;28;43965;-69
2022/06/23 00:35:17;;;;;;;2.40;2.20;;;24.40;69.70;;;;;;5067307;28;44059;-70
2022/06/23 00:37:46;;;;;;;2.13;2.13;;;24.60;69.30;;;;;;5048494;28;45820;-69
2022/06/23 00:40:14;;;;;;;2.27;2.20;;;24.80;68.80;;;;;;5066410;28;43917;-70
2022/06/23 00:42:51;;;;;;;2.30;2.30;;;24.90;68.60;;;;;;5067148;28;43404;-69
2022/06/23 00:45:22;;;;;;;2.20;2.10;;;25.00;68.10;;;;;;5067209;28;44003;-69
2022/06/23 00:47:52;;;;;;;2.00;2.00;;;25.10;67.70;;;;;;5044908;28;45722;-69
2022/06/23 00:50:25;;;;;;;2.43;2.20;;;25.00;67.80;;;;;;5048178;28;45612;-69
2022/06/23 00:52:56;;;;;;;2.07;2.07;;;24.80;68.20;;;;;;5061178;28;43991;-70
2022/06/23 00:55:39;;;;;;;2.20;2.20;;;24.60;68.90;;;;;;5067136;28;44047;-70
2022/06/23 00:58:13;;;;;;;2.13;2.13;;;24.40;69.50;;;;;;5066207;28;43939;-69
2022/06/23 01:00:42;;;;;;;2.10;2.00;;;24.10;70.60;;;;;;5066082;28;43960;-70
2022/06/23 01:03:15;;;;;;;2.37;2.30;;;24.00;70.40;;;;;;5066878;28;43894;-70
2022/06/23 01:05:44;;;;;;;2.33;2.23;;;23.80;70.70;;;;;;5067153;28;43889;-70
2022/06/23 01:08:14;;;;;;;2.13;2.03;;;23.70;71.10;;;;;;5066507;28;43948;-70
2022/06/23 01:10:44;;;;;;;2.10;2.00;;;23.70;71.40;;;;;;5066589;28;43880;-69
2022/06/23 01:13:27;;;;;;;2.20;2.20;;;23.60;71.60;;;;;;5066732;28;43930;-68
2022/06/23 01:15:56;;;;;;;2.40;2.30;;;23.50;71.70;;;;;;5066962;28;43908;-70
2022/06/23 01:18:25;;;;;;;2.30;2.20;;;23.50;71.80;;;;;;5065734;28;44050;-70
2022/06/23 01:20:55;;;;;;;2.10;2.10;;;23.50;72.00;;;;;;5066153;28;43334;-70
2022/06/23 01:23:35;;;;;;;2.00;2.00;;;23.50;72.10;;;;;;5066339;28;43931;-71
2022/06/23 01:26:45;;;;;;;2.33;2.23;;;23.40;72.90;;;;;;5066667;28;43969;-70
2022/06/23 01:29:15;;;;;;;2.30;2.20;;;23.40;72.50;;;;;;5066539;28;44075;-70
2022/06/23 01:31:45;;;;;;;2.50;2.40;;;23.40;73.20;;;;;;5066271;28;43367;-70
2022/06/23 01:34:24;;;;;;;2.00;2.00;;;23.50;73.10;;;;;;5066372;28;43438;-69
2022/06/23 01:36:58;;;;;;;2.40;2.40;;;23.60;72.70;;;;;;5066708;28;43974;-70
2022/06/23 01:39:27;;;;;;;2.07;2.07;;;23.70;72.00;;;;;;5065858;28;44981;-70
2022/06/23 01:41:58;;;;;;;2.03;2.03;;;23.90;71.50;;;;;;5065666;28;43914;-71
2022/06/23 01:44:36;;;;;;;2.50;2.40;;;24.00;70.90;;;;;;5066230;28;43988;-70
2022/06/23 01:47:14;;;;;;;2.20;2.10;;;24.20;70.60;;;;;;5066384;28;43937;-70
2022/06/23 01:49:45;;;;;;;2.07;1.97;;;24.40;70.10;;;;;;5066151;28;43842;-70
2022/06/23 01:52:17;;;;;;;2.17;2.17;;;24.50;69.50;;;;;;5066045;28;43958;-70
2022/06/23 01:54:48;;;;;;;2.17;2.10;;;24.70;69.10;;;;;;5065976;28;43396;-70
2022/06/23 01:57:25;;;;;;;2.23;2.17;;;24.80;68.70;;;;;;5066448;28;43935;-69
2022/06/23 02:00:01;;;;;;;2.20;2.20;;;24.90;68.30;;;;;;5065727;28;44028;-71
2022/06/23 02:02:53;;;;;;;2.17;2.07;;;25.00;67.90;;;;;;5065395;28;44076;-70
2022/06/23 02:05:35;;;;;;;1.93;1.93;;;24.80;68.20;;;;;;5065921;28;43895;-70
2022/06/23 02:08:10;;;;;;;2.20;2.17;;;24.60;68.70;;;;;;5066149;28;44039;-70
2022/06/23 02:10:43;;;;;;;2.40;2.30;;;24.40;69.40;;;;;;5066935;28;43774;-70
2022/06/23 02:13:18;;;;;;;1.97;1.97;;;24.10;69.80;;;;;;5069400;28;43790;-71
2022/06/23 02:16:00;;;;;;;2.13;2.13;;;23.90;70.20;;;;;;5063008;28;43935;-70
2022/06/23 02:18:32;;;;;;;1.80;1.80;;;23.80;70.80;;;;;;5069425;28;43415;-70
2022/06/23 02:21:15;;;;;;;2.10;2.10;;;23.70;71.10;;;;;;5068976;28;43784;-70
2022/06/23 02:23:46;;;;;;;1.90;1.90;;;23.60;71.40;;;;;;5069229;28;43902;-70
2022/06/23 02:26:16;;;;;;;1.93;1.93;;;23.60;71.70;;;;;;5069142;28;43981;-71
2022/06/23 02:28:48;;;;;;;2.10;2.10;;;23.50;71.80;;;;;;5069498;28;43968;-70
2022/06/23 02:31:20;;;;;;;2.17;2.17;;;23.50;72.00;;;;;;5068768;28;43990;-70
2022/06/23 02:33:52;;;;;;;2.13;2.07;;;23.50;72.10;;;;;;5068588;28;43952;-70
2022/06/23 02:36:29;;;;;;;2.40;2.30;;;23.40;72.10;;;;;;5062240;28;44010;-70
2022/06/23 02:38:59;;;;;;;2.30;2.23;;;23.40;72.20;;;;;;5069236;28;43321;-69
2022/06/23 02:41:30;;;;;;;2.00;2.00;;;23.40;72.70;;;;;;5068375;28;43968;-70
2022/06/23 02:44:05;;;;;;;2.20;2.20;;;23.40;73.30;;;;;;5068624;28;44039;-70
2022/06/23 02:46:56;;;;;;;2.20;2.20;;;23.40;73.10;;;;;;5068703;28;44051;-71
2022/06/23 02:49:40;;;;;;;2.30;2.13;;;23.50;72.80;;;;;;5068725;28;43634;-71
2022/06/23 02:52:31;;;;;;;1.70;1.70;;;23.70;72.10;;;;;;5049939;28;45849;-70
2022/06/23 02:55:52;;;;;;;2.37;2.27;;;23.90;71.60;;;;;;5068405;28;43947;-70
2022/06/23 02:58:20;;;;;;;2.43;2.37;;;24.10;70.90;;;;;;4986100;28;43981;-70
2022/06/23 03:00:51;;;;;;;1.93;1.93;;;24.20;70.40;;;;;;4969455;28;44002;-69
2022/06/23 03:03:23;;;;;;;1.97;1.97;;;24.40;70.00;;;;;;5015546;28;44009;-70
2022/06/23 03:05:53;;;;;;;2.43;2.33;;;24.50;69.50;;;;;;5048248;28;44030;-70
2022/06/23 03:08:28;;;;;;;2.30;2.20;;;24.60;69.10;;;;;;5047973;28;43944;-71
2022/06/23 03:10:58;;;;;;;1.93;1.93;;;24.80;68.80;;;;;;5042657;28;43980;-69
2022/06/23 03:13:35;;;;;;;2.07;1.90;;;24.90;68.40;;;;;;5048192;28;44733;-70
2022/06/23 03:16:08;;;;;;;1.97;1.97;;;24.90;68.00;;;;;;5048023;28;43877;-71
2022/06/23 03:18:40;;;;;;;2.27;2.27;;;24.80;68.20;;;;;;5048030;28;43957;-70
2022/06/23 03:21:13;;;;;;;2.20;2.20;;;24.60;68.80;;;;;;5048091;28;43983;-70
2022/06/23 03:23:44;;;;;;;1.80;1.80;;;24.40;69.30;;;;;;5046941;28;44669;-70
2022/06/23 03:26:16;;;;;;;2.20;2.20;;;24.20;69.80;;;;;;5048230;28;43920;-68
2022/06/23 03:28:47;;;;;;;2.00;2.00;;;24.00;70.20;;;;;;5048114;28;44054;-70
2022/06/23 03:31:19;;;;;;;1.90;1.90;;;23.80;70.60;;;;;;5048582;28;43307;-70
2022/06/23 03:33:51;;;;;;;2.07;2.07;;;23.70;71.00;;;;;;5047771;28;43845;-70
2022/06/23 03:36:25;;;;;;;2.17;2.17;;;23.70;71.30;;;;;;5041609;28;43947;-70
2022/06/23 03:41:45;;;;;;;2.10;2.10;;;23.50;71.80;;;;;;5048288;28;43903;-70
2022/06/23 03:44:17;;;;;;;2.30;2.30;;;23.50;71.90;;;;;;5048136;28;43607;-70
2022/06/23 03:46:48;;;;;;;2.00;2.00;;;23.40;72.00;;;;;;5048025;28;43916;-70
2022/06/23 03:49:23;;;;;;;2.07;2.00;;;23.40;72.10;;;;;;5047570;28;43348;-69
2022/06/23 03:51:53;;;;;;;2.40;2.30;;;23.40;72.20;;;;;;5047970;28;43416;-70
2022/06/23 03:54:23;;;;;;;2.10;2.10;;;23.30;72.20;;;;;;5047708;28;43828;-70
2022/06/23 03:56:53;;;;;;;2.70;2.50;;;23.30;72.30;;;;;;5047504;28;44150;-70
2022/06/23 03:59:24;;;;;;;2.40;2.30;;;23.30;73.00;;;;;;5041204;28;43908;-70
2022/06/23 04:01:55;;;;;;;2.63;2.53;;;23.40;73.20;;;;;;5026670;28;43948;-70
2022/06/23 04:04:25;;;;;;;2.40;2.30;;;23.40;72.90;;;;;;5047255;28;43961;-69
2022/06/23 04:06:53;;;;;;;2.60;2.40;;;23.60;72.60;;;;;;5047256;28;43964;-71
2022/06/23 04:09:28;;;;;;;2.90;2.80;;;23.70;72.00;;;;;;5047101;28;43955;-70
2022/06/23 04:12:05;;;;;;;2.70;2.50;;;23.90;71.50;;;;;;5047912;28;43943;-70
2022/06/23 04:14:49;;;;;;;3.00;2.90;;;24.10;70.90;;;;;;5045561;28;45548;-71
2022/06/23 04:17:25;;;;;;;2.50;2.40;;;24.30;70.40;;;;;;5046979;28;43499;-69
2022/06/23 04:20:01;;;;;;;3.00;2.80;;;24.30;70.00;;;;;;5047366;28;43430;-71
2022/06/23 04:22:33;;;;;;;3.10;2.80;;;24.50;69.70;;;;;;5047673;28;44027;-70
2022/06/23 04:25:01;;;;;;;2.93;2.73;;;24.60;70.10;;;;;;5047095;28;43971;-70
2022/06/23 04:27:31;;;;;;;5.50;3.63;;;24.70;68.90;;;;;;5045306;28;45077;-71
2022/06/23 04:30:03;;;;;;;3.13;2.87;;;24.70;68.50;;;;;;5047218;28;43897;-69
2022/06/23 04:32:32;;;;;;;3.77;3.47;;;24.70;68.60;;;;;;5047443;28;43932;-70
2022/06/23 04:35:17;;;;;;;3.33;3.00;;;24.50;69.10;;;;;;5046608;28;43739;-71
2022/06/23 04:37:49;;;;;;;4.10;3.70;;;24.30;69.60;;;;;;5046442;28;43930;-69
2022/06/23 04:40:23;;;;;;;3.80;3.50;;;24.10;70.00;;;;;;5040342;28;44057;-70
2022/06/23 04:42:57;;;;;;;4.07;3.53;;;24.00;70.50;;;;;;5047313;28;43947;-71
2022/06/23 04:46:09;;;;;;;4.97;3.93;;;23.80;70.80;;;;;;5046743;28;43949;-69
2022/06/23 04:48:47;;;;;;;4.37;3.70;;;23.70;71.20;;;;;;5041542;28;43956;-70
2022/06/23 04:51:23;;;;;;;4.00;3.57;;;23.60;71.50;;;;;;5047143;28;44039;-70
2022/06/23 04:53:55;;;;;;;3.67;3.37;;;23.50;71.80;;;;;;5047078;28;44068;-69
2022/06/23 04:56:30;;;;;;;4.83;3.60;;;23.50;71.90;;;;;;5046557;28;44920;-70
2022/06/23 04:59:01;;;;;;;4.00;3.70;;;23.40;72.00;;;;;;5046547;28;44051;-70
2022/06/23 05:01:38;;;;;;;3.83;3.57;;;23.40;72.10;;;;;;5057257;28;43762;-70
2022/06/23 05:04:11;;;;;;;3.87;3.67;;;23.30;72.10;;;;;;5067015;28;43754;-69
2022/06/23 05:06:42;;;;;;;4.20;3.80;;;23.30;72.30;;;;;;5060400;28;43975;-69
2022/06/23 05:09:14;;;;;;;4.13;3.77;;;23.30;73.40;;;;;;5066381;28;43822;-70
2022/06/23 05:11:44;;;;;;;3.80;3.50;;;23.30;73.30;;;;;;5066951;28;43851;-70
2022/06/23 05:14:23;;;;;;;4.53;3.60;;;23.40;72.90;;;;;;5067310;28;43406;-69
2022/06/23 05:16:53;;;;;;;3.83;3.53;;;23.50;72.60;;;;;;5066570;28;44416;-70
2022/06/23 05:19:30;;;;;;;3.77;3.53;;;23.70;72.20;;;;;;5066482;28;44027;-70
2022/06/23 05:22:01;;;;;;;3.90;3.70;;;23.80;71.70;;;;;;5048188;28;43967;-70
2022/06/23 05:24:30;;;;;;;4.93;3.67;;;24.00;71.10;;;;;;5067024;28;43934;-70
2022/06/23 05:26:59;;;;;;;4.20;3.77;;;24.10;70.60;;;;;;5048106;28;44614;-69
2022/06/23 05:29:30;;;;;;;3.93;3.40;;;24.30;70.30;;;;;;5065959;28;44131;-70
2022/06/23 05:32:00;;;;;;;4.40;4.00;;;24.40;69.90;;;;;;5066251;28;43411;-70
2022/06/23 05:34:29;;;;;;;3.93;3.63;;;24.50;69.60;;;;;;5060417;28;43360;-70
2022/06/23 05:37:03;;;;;;;4.10;3.80;;;24.60;69.30;;;;;;5059837;28;43946;-70
2022/06/23 05:39:33;;;;;;;4.10;3.70;;;24.70;68.90;;;;;;5028195;28;45526;-70
2022/06/23 05:42:02;;;;;;;3.53;3.33;;;24.80;69.50;;;;;;5066555;28;43953;-70
2022/06/23 05:44:31;;;;;;;3.60;3.30;;;24.80;68.30;;;;;;5066655;28;43956;-71
2022/06/23 05:47:00;;;;;;;4.10;3.80;;;24.70;68.60;;;;;;5069524;28;44041;-69
2022/06/23 05:49:30;;;;;;;3.80;3.60;;;24.50;69.10;;;;;;5069752;28;43841;-70
2022/06/23 05:52:00;;;;;;;3.70;3.40;;;24.30;69.80;;;;;;5069853;28;44115;-70
2022/06/23 05:54:33;;;;;;;3.80;3.60;;;24.10;69.90;;;;;;5070086;28;43968;-70
2022/06/23 05:57:12;;;;;;;3.50;3.30;;;23.90;70.20;;;;;;5069656;28;43938;-71
2022/06/23 05:59:53;;;;;;;3.30;3.17;;;23.80;70.60;;;;;;5069555;28;43913;-70
2022/06/23 06:02:24;;;;;;;3.80;3.50;;;23.70;71.10;;;;;;5069393;28;43974;-70
2022/06/23 06:04:53;;;;;;;3.87;3.50;;;23.60;71.40;;;;;;5069910;28;44012;-70
2022/06/23 06:07:24;;;;;;;2.83;2.73;;;23.50;71.60;;;;;;5062945;28;43881;-70
2022/06/23 06:09:52;;;;;;;3.30;3.10;;;23.50;71.80;;;;;;5062972;28;44027;-70
2022/06/23 06:12:22;;;;;;;3.67;3.40;;;23.40;71.90;;;;;;5069397;28;44055;-70
2022/06/23 06:14:52;;;;;;;3.40;3.30;;;23.40;72.10;;;;;;5069937;28;44051;-70
2022/06/23 06:17:22;;;;;;;3.87;3.67;;;23.40;72.20;;;;;;5069117;28;43771;-70
2022/06/23 06:19:52;;;;;;;3.87;3.57;;;23.40;73.00;;;;;;5069105;28;43407;-70
2022/06/23 06:22:33;;;;;;;3.53;3.23;;;23.30;72.30;;;;;;5069474;28;43991;-70
2022/06/23 06:25:01;;;;;;;3.23;3.00;;;23.30;72.30;;;;;;5069741;28;43958;-69
2022/06/23 06:27:30;;;;;;;3.40;3.20;;;23.30;73.30;;;;;;5069185;28;44026;-70
2022/06/23 06:29:59;;;;;;;3.40;3.20;;;23.40;73.20;;;;;;5068906;28;43403;-70
2022/06/23 06:32:30;;;;;;;3.23;3.13;;;23.50;72.90;;;;;;5069134;28;43954;-70
2022/06/23 06:35:03;;;;;;;3.60;3.40;;;23.60;72.60;;;;;;5069399;28;43901;-70
2022/06/23 06:37:40;;;;;;;3.57;3.33;;;23.70;72.00;;;;;;5050581;28;45609;-70
2022/06/23 06:40:08;;;;;;;3.20;3.00;;;23.90;71.40;;;;;;5050299;28;45132;-69
2022/06/23 06:42:38;;;;;;;3.33;3.23;;;24.10;70.90;;;;;;5068961;28;43868;-70
2022/06/23 06:45:08;;;;;;;3.43;3.23;;;24.20;70.50;;;;;;5069378;28;44387;-69
2022/06/23 06:47:37;;;;;;;3.30;3.10;;;24.30;70.00;;;;;;5068492;28;43869;-70
2022/06/23 06:50:29;;;;;;;3.20;3.10;;;24.40;69.80;;;;;;5062540;28;43901;-70
2022/06/23 06:52:59;;;;;;;3.50;3.30;;;24.50;69.50;;;;;;5068788;28;43424;-70
2022/06/23 06:55:28;;;;;;;3.33;3.13;;;24.60;69.10;;;;;;5069098;28;43908;-69
2022/06/23 06:58:02;;;;;;;3.00;2.90;;;24.60;68.80;;;;;;5068559;28;43978;-70
2022/06/23 07:00:33;;;;;;;2.90;2.80;;;24.60;69.00;;;;;;5068404;28;43440;-70
2022/06/23 07:03:02;;;;;;;3.50;3.30;;;24.40;69.40;;;;;;5068802;28;43943;-69
2022/06/23 07:05:36;;;;;;;3.53;3.33;;;24.20;69.90;;;;;;5069191;28;43963;-70
2022/06/23 07:08:07;;;;;;;3.20;3.10;;;24.10;70.20;;;;;;5050052;28;45736;-71
2022/06/23 07:10:37;;;;;;;3.00;2.90;;;23.90;70.50;;;;;;5068197;28;43966;-70
2022/06/23 07:13:08;;;;;;;2.93;2.83;;;23.80;70.90;;;;;;5068693;28;43858;-69
2022/06/23 07:15:38;;;;;;;3.30;3.13;;;23.70;71.90;;;;;;5068958;28;43925;-69
2022/06/23 07:18:12;;;;;;;2.83;2.73;;;23.60;71.40;;;;;;5068565;28;43972;-69
2022/06/23 07:20:43;;;;;;;2.90;2.80;;;23.50;71.60;;;;;;5068407;28;43979;-69
2022/06/23 07:23:14;;;;;;;3.33;3.20;;;23.50;71.80;;;;;;5068415;28;43866;-70
2022/06/23 07:25:51;;;;;;;3.17;3.07;;;23.40;72.00;;;;;;5068709;28;44020;-69
2022/06/23 07:28:22;;;;;;;3.00;2.90;;;23.40;72.20;;;;;;5067936;28;44107;-69
2022/06/23 07:30:54;;;;;;;3.00;2.90;;;23.40;72.30;;;;;;5067980;28;43928;-69
2022/06/23 07:33:24;;;;;;;3.23;3.03;;;23.40;72.50;;;;;;5068216;28;43920;-69
2022/06/23 07:35:56;;;;;;;3.00;2.90;;;23.30;72.40;;;;;;5068564;28;43827;-71
2022/06/23 07:38:28;;;;;;;2.70;2.60;;;23.30;73.00;;;;;;5068163;28;43909;-70
2022/06/23 07:40:59;;;;;;;3.27;3.13;;;23.30;73.40;;;;;;5067941;28;43428;-70
2022/06/23 07:43:31;;;;;;;3.00;2.90;;;23.50;73.10;;;;;;5068233;28;43318;-70
2022/06/23 07:46:00;;;;;;;3.23;3.13;;;23.60;72.60;;;;;;5068664;28;43411;-70
2022/06/23 07:48:32;;;;;;;3.00;2.80;;;23.70;72.20;;;;;;5029758;28;44238;-71
2022/06/23 07:51:01;;;;;;;2.73;2.63;;;23.90;71.80;;;;;;5040287;28;46110;-69
2022/06/23 07:53:32;;;;;;;3.00;2.90;;;24.00;71.20;;;;;;5067686;28;43913;-70
2022/06/23 07:56:01;;;;;;;3.00;2.90;;;24.10;70.70;;;;;;5068110;28;43999;-70
2022/06/23 07:58:30;;;;;;;2.77;2.67;;;24.30;70.40;;;;;;5049336;28;45697;-70
2022/06/23 08:01:00;;;;;;;2.80;2.67;;;24.40;70.00;;;;;;5067328;28;43422;-70
2022/06/23 08:03:34;;;;;;;2.63;2.53;;;24.50;69.80;;;;;;5049371;28;43955;-70
2022/06/23 08:06:06;;;;;;;2.93;2.83;;;24.50;69.30;;;;;;5068070;28;43896;-70
2022/06/23 08:08:38;;;;;;;2.60;2.50;;;24.60;69.00;;;;;;5066943;28;44023;-70
2022/06/23 08:14:17;;;;;;;2.87;2.67;;;24.70;68.60;;;;;;5067867;28;43911;-70
2022/06/23 08:16:50;;;;;;;2.53;2.43;;;24.50;69.10;;;;;;5068034;28;43952;-70
2022/06/23 08:19:30;;;;;;;2.60;2.50;;;24.30;69.70;;;;;;5067279;28;44444;-70
2022/06/23 08:22:05;;;;;;;2.43;2.33;;;24.10;70.00;;;;;;5067377;28;43520;-70
2022/06/23 08:24:36;;;;;;;2.20;2.20;;;23.90;70.40;;;;;;5067576;28;43324;-70
2022/06/23 08:27:10;;;;;;;2.60;2.50;;;23.80;70.90;;;;;;5061524;28;43972;-70
2022/06/23 08:29:43;;;;;;;2.70;2.60;;;23.70;71.10;;;;;;5061018;28;43831;-70
2022/06/23 08:32:11;;;;;;;2.60;2.50;;;23.60;71.40;;;;;;5067376;28;43936;-70
2022/06/23 08:34:41;;;;;;;2.77;2.63;;;23.50;71.70;;;;;;5067367;28;44003;-69
2022/06/23 08:37:14;;;;;;;2.77;2.67;;;23.50;71.90;;;;;;5067325;28;43967;-69
2022/06/23 08:39:52;;;;;;;2.83;2.73;;;23.40;72.00;;;;;;5067058;28;43980;-71
2022/06/23 08:42:22;;;;;;;2.63;2.53;;;23.40;72.20;;;;;;5066966;28;44193;-69
2022/06/23 08:45:01;;;;;;;2.80;2.70;;;23.30;72.20;;;;;;5067275;28;43942;-69
2022/06/23 08:47:34;;;;;;;2.83;2.73;;;23.30;72.30;;;;;;5067487;28;44056;-69
2022/06/23 08:50:06;;;;;;;2.37;2.37;;;23.30;72.40;;;;;;5066591;28;44851;-71
2022/06/23 08:52:38;;;;;;;3.00;2.90;;;23.30;72.40;;;;;;5042388;28;43787;-69
2022/06/23 08:55:09;;;;;;;2.77;2.70;;;23.30;72.50;;;;;;5048717;28;43896;-71
2022/06/23 08:58:00;;;;;;;2.70;2.60;;;23.30;73.40;;;;;;5067218;28;44057;-69
2022/06/23 09:00:30;;;;;;;2.67;2.50;;;23.40;73.20;;;;;;5066181;28;43761;-70
2022/06/23 09:03:01;;;;;;;2.47;2.47;;;23.50;73.50;;;;;;5065337;28;43411;-70
2022/06/23 09:05:47;;;;;;;2.50;2.50;;;23.70;72.20;;;;;;5065448;28;43400;-70
2022/06/23 09:08:18;;;;;;;2.80;2.70;;;23.90;71.80;;;;;;5065959;28;43943;-69
2022/06/23 09:11:11;;;;;;;2.40;2.30;;;24.00;71.30;;;;;;5065078;28;43885;-70
2022/06/23 09:13:46;;;;;;;2.67;2.57;;;24.20;70.70;;;;;;5065311;28;43927;-69
2022/06/23 09:16:40;;;;;;;2.90;2.80;;;24.30;70.40;;;;;;5065449;28;43903;-71
2022/06/23 09:19:25;;;;;;;2.67;2.57;;;24.40;69.90;;;;;;5061041;28;43987;-69
2022/06/23 09:22:09;;;;;;;2.40;2.30;;;24.40;69.60;;;;;;5068885;28;44021;-70
2022/06/23 09:24:49;;;;;;;2.77;2.60;;;24.50;69.30;;;;;;5069146;28;43395;-70
2022/06/23 09:27:25;;;;;;;2.40;2.40;;;24.60;69.00;;;;;;5069317;28;43416;-70
2022/06/23 09:29:56;;;;;;;2.30;2.30;;;24.50;69.00;;;;;;5069465;28;43971;-70
2022/06/23 09:32:32;;;;;;;2.57;2.47;;;24.40;69.50;;;;;;5068860;28;43976;-70
2022/06/23 09:35:22;;;;;;;2.27;2.27;;;24.20;70.00;;;;;;5050822;28;44883;-69
2022/06/23 09:38:03;;;;;;;2.27;2.27;;;24.00;70.30;;;;;;5062851;28;43363;-70
2022/06/23 09:40:39;;;;;;;2.57;2.47;;;23.90;70.60;;;;;;5050704;28;43986;-70
2022/06/23 09:43:33;;;;;;;2.10;2.10;;;23.70;70.90;;;;;;5068965;28;43923;-69
2022/06/23 09:46:13;;;;;;;2.40;2.30;;;23.60;71.30;;;;;;5062452;28;43881;-70
2022/06/23 09:48:53;;;;;;;2.30;2.30;;;23.60;71.70;;;;;;5069112;28;43948;-70
2022/06/23 09:51:39;;;;;;;2.20;2.20;;;23.50;71.80;;;;;;5068905;28;43375;-70
2022/06/23 09:54:21;;;;;;;2.60;2.50;;;23.50;71.90;;;;;;5068633;28;44119;-69
2022/06/23 09:56:55;;;;;;;2.47;2.37;;;23.40;72.10;;;;;;5068722;28;43415;-70
2022/06/23 09:59:52;;;;;;;2.37;2.37;;;23.40;72.20;;;;;;5068670;28;43448;-70
2022/06/23 10:02:26;;;;;;;2.37;2.27;;;23.30;72.20;;;;;;5030603;28;1102650;-70
2022/06/23 10:05:03;;;;;;;1.93;1.93;;;23.40;72.40;;;;;;5062777;28;45060;-70
2022/06/23 10:07:55;;;;;;;2.20;2.20;;;23.30;72.40;;;;;;5069459;28;43277;-70
2022/06/23 10:10:31;;;;;;;2.13;2.13;;;23.30;73.20;;;;;;5066592;28;43397;-70
2022/06/23 10:13:22;;;;;;;2.20;2.10;;;23.30;73.20;;;;;;5069877;28;44012;-69
2022/06/23 10:16:00;;;;;;;2.07;2.07;;;23.40;72.90;;;;;;5069358;28;44710;-71
2022/06/23 10:19:12;;;;;;;2.50;2.40;;;23.60;72.50;;;;;;5069101;28;44452;-70
2022/06/23 10:21:47;;;;;;;2.10;2.10;;;23.80;72.10;;;;;;4987158;28;44229;-70
2022/06/23 10:24:29;;;;;;;2.30;2.30;;;23.90;71.40;;;;;;5062946;28;43837;-70
2022/06/23 10:27:12;;;;;;;2.10;2.00;;;24.10;70.90;;;;;;5068911;28;44708;-70
2022/06/23 10:30:02;;;;;;;2.00;2.00;;;24.20;70.50;;;;;;5069007;28;44082;-70
2022/06/23 10:33:20;;;;;;;2.37;2.27;;;24.30;70.00;;;;;;5068714;28;44034;-71
2022/06/23 10:35:54;;;;;;;2.10;2.10;;;24.40;69.60;;;;;;5069469;28;44049;-69
2022/06/23 10:38:33;;;;;;;2.30;2.20;;;24.50;69.50;;;;;;5068883;28;44694;-70
2022/06/23 10:41:19;;;;;;;2.00;1.90;;;24.60;69.10;;;;;;5068667;28;43895;-70
2022/06/23 10:44:08;;;;;;;2.33;2.23;;;24.60;69.00;;;;;;5069107;28;43336;-70
2022/06/23 10:46:38;;;;;;;2.00;2.00;;;24.50;69.50;;;;;;5066912;28;44166;-69
2022/06/23 10:49:45;;;;;;;2.37;2.27;;;24.30;70.00;;;;;;5068709;28;44813;-70
2022/06/23 10:52:39;;;;;;;2.00;2.00;;;24.10;70.00;;;;;;5027892;28;43762;-69
2022/06/23 10:55:23;;;;;;;2.10;2.10;;;23.90;70.50;;;;;;5052735;28;43420;-69
2022/06/23 10:58:20;;;;;;;1.90;1.90;;;23.70;71.60;;;;;;5069153;28;43955;-71
2022/06/23 11:00:52;;;;;;;2.00;2.00;;;23.60;71.20;;;;;;5027850;28;44111;-70
2022/06/23 11:03:33;;;;;;;2.07;2.07;;;23.60;71.60;;;;;;5062699;28;44051;-70
2022/06/23 11:06:45;;;;;;;2.20;2.20;;;23.50;71.80;;;;;;5068745;28;44027;-70
2022/06/23 11:09:36;;;;;;;1.83;1.80;;;23.40;71.90;;;;;;5048719;28;43874;-68
2022/06/23 11:12:11;;;;;;;2.10;2.10;;;23.40;72.10;;;;;;5068263;28;43979;-70
2022/06/23 11:14:48;;;;;;;1.87;1.87;;;23.40;72.20;;;;;;5068277;28;43928;-70
2022/06/23 11:17:22;;;;;;;1.90;1.90;;;23.40;72.30;;;;;;5062146;28;43944;-69
2022/06/23 11:19:58;;;;;;;2.37;2.27;;;23.30;72.30;;;;;;5063250;28;43952;-69
2022/06/23 11:22:36;;;;;;;2.20;2.20;;;23.30;73.20;;;;;;5068657;28;43616;-71
2022/06/23 11:25:20;;;;;;;2.03;2.03;;;23.40;73.20;;;;;;5068308;28;43951;-69
2022/06/23 11:27:52;;;;;;;2.00;2.00;;;23.50;72.90;;;;;;5068324;28;43379;-69
2022/06/23 11:30:22;;;;;;;2.07;1.97;;;23.60;72.50;;;;;;5068512;28;43357;-69
2022/06/23 11:33:19;;;;;;;1.80;1.80;;;23.70;72.10;;;;;;5061384;28;44020;-69
2022/06/23 11:36:13;;;;;;;1.90;1.90;;;23.90;71.50;;;;;;5049674;28;45288;-69
2022/06/23 11:38:59;;;;;;;1.87;1.87;;;24.10;70.90;;;;;;5062231;28;44032;-69
2022/06/23 11:41:47;;;;;;;1.70;1.70;;;24.30;70.60;;;;;;5049921;28;43394;-70
2022/06/23 11:44:22;;;;;;;1.57;1.57;;;24.30;70.70;;;;;;5048862;28;46873;-69
2022/06/23 11:46:56;;;;;;;2.00;1.90;;;24.40;69.50;;;;;;5068133;28;43865;-70
2022/06/23 11:49:31;;;;;;;2.10;2.00;;;24.50;69.40;;;;;;5067836;28;43935;-70
2022/06/23 11:52:05;;;;;;;1.90;1.90;;;24.60;69.10;;;;;;5068112;28;43881;-70
2022/06/23 11:55:12;;;;;;;1.77;1.77;;;24.70;68.70;;;;;;5067731;28;44718;-69
2022/06/23 11:57:51;;;;;;;1.90;1.90;;;24.60;68.70;;;;;;5049280;28;45797;-69
2022/06/23 12:00:20;;;;;;;1.90;1.90;;;24.50;69.50;;;;;;5067512;28;43313;-69
2022/06/23 12:03:16;;;;;;;1.73;1.73;;;24.30;69.70;;;;;;5067736;28;43991;-70
2022/06/23 12:05:47;;;;;;;1.87;1.87;;;24.10;70.00;;;;;;5061292;28;44069;-71
2022/06/23 12:08:31;;;;;;;1.73;1.73;;;23.90;70.40;;;;;;5061216;28;43940;-70
2022/06/23 12:11:03;;;;;;;1.80;1.80;;;23.80;70.80;;;;;;5063915;28;43386;-71
2022/06/23 12:13:32;;;;;;;1.70;1.70;;;23.60;71.10;;;;;;5067984;28;44466;-69
2022/06/23 12:16:01;;;;;;;1.80;1.80;;;23.60;71.40;;;;;;5067321;28;45106;-70
2022/06/23 12:18:32;;;;;;;2.00;2.00;;;23.50;71.60;;;;;;5067291;28;43975;-70
2022/06/23 12:21:02;;;;;;;1.90;1.80;;;23.50;71.80;;;;;;5067305;28;44236;-69
2022/06/23 12:23:32;;;;;;;1.83;1.73;;;23.40;71.90;;;;;;5067789;28;43983;-71
2022/06/23 12:26:10;;;;;;;1.93;1.93;;;23.40;72.00;;;;;;5067135;28;44690;-70
2022/06/23 12:28:40;;;;;;;1.73;1.73;;;23.40;72.20;;;;;;5067336;28;43889;-69
2022/06/23 12:31:16;;;;;;;2.00;2.00;;;23.40;72.20;;;;;;5067116;28;43906;-70
2022/06/23 12:33:48;;;;;;;1.97;1.97;;;23.40;72.20;;;;;;5061539;28;43891;-70
2022/06/23 12:36:18;;;;;;;1.77;1.77;;;23.30;72.20;;;;;;5048894;28;46124;-69
2022/06/23 12:38:47;;;;;;;1.60;1.60;;;23.30;72.40;;;;;;5067268;28;43905;-70
2022/06/23 12:41:18;;;;;;;1.90;1.90;;;23.30;73.10;;;;;;5066722;28;43983;-69
2022/06/23 12:43:49;;;;;;;1.70;1.70;;;23.40;73.10;;;;;;5067960;28;44127;-69
2022/06/23 12:46:24;;;;;;;1.70;1.70;;;23.50;72.80;;;;;;5067089;28;43926;-71
2022/06/23 12:49:00;;;;;;;1.70;1.70;;;23.70;72.40;;;;;;5066931;28;43844;-70
2022/06/23 12:51:37;;;;;;;1.77;1.77;;;23.90;71.70;;;;;;5066699;28;44059;-69
2022/06/23 12:54:18;;;;;;;1.83;1.83;;;24.00;71.20;;;;;;5067356;28;43786;-70
2022/06/23 12:57:07;;;;;;;1.80;1.80;;;24.10;70.60;;;;;;5067231;28;43915;-69
2022/06/23 12:59:41;;;;;;;1.80;1.80;;;24.30;70.30;;;;;;5067008;28;43428;-70
2022/06/23 13:02:12;;;;;;;1.60;1.60;;;24.40;69.90;;;;;;5066559;28;44028;-69
2022/06/23 13:04:43;;;;;;;1.60;1.60;;;24.50;69.50;;;;;;5067239;28;44007;-69
2022/06/23 13:07:14;;;;;;;1.77;1.77;;;24.50;69.30;;;;;;5067117;28;44045;-70
2022/06/23 13:09:45;;;;;;;1.97;1.97;;;24.50;69.10;;;;;;5048551;28;43993;-70
2022/06/23 13:12:39;;;;;;;1.70;1.70;;;24.40;69.40;;;;;;5066514;28;44035;-70
2022/06/23 13:15:09;;;;;;;1.70;1.70;;;24.30;70.00;;;;;;5067277;28;44216;-70
2022/06/23 13:17:41;;;;;;;1.77;1.77;;;24.10;70.00;;;;;;5034822;28;45623;-70
2022/06/23 13:20:16;;;;;;;1.60;1.50;;;24.00;70.40;;;;;;5066633;28;43944;-70
2022/06/23 13:22:46;;;;;;;1.80;1.80;;;23.80;70.70;;;;;;5066673;28;44015;-70
2022/06/23 13:25:16;;;;;;;1.50;1.50;;;23.70;71.10;;;;;;5067335;28;43959;-70
2022/06/23 13:27:49;;;;;;;1.70;1.70;;;23.60;71.30;;;;;;5066785;28;43992;-70
2022/06/23 13:30:42;;;;;;;1.93;1.93;;;23.60;71.60;;;;;;5066207;28;44034;-71
2022/06/23 13:33:12;;;;;;;1.60;1.60;;;23.50;71.80;;;;;;5066208;28;43908;-69
2022/06/23 13:35:43;;;;;;;1.67;1.67;;;23.50;71.80;;;;;;5066908;28;43992;-70